Matheson, Colorado
Current Conditions -  °F | °C
As of 11:55 AM on Sunday 23 Nov 2014 (Local Time) from KLIC Reporting Station
Clear Clear  
Wind Chill: 26°   Ceiling: Unl
Heat Index: 37°   Visibility: 10mi
Dew Point: 16°   Wind: 24mph
Humidity: 42%   Direction: 360°N
Pressure: 29.76"   Gusts: NA
Location:  39.17°N, 103.98°W
Report Text: KLIC 231855Z AUTO 36021KT 10SM CLR 03/M09 A2976 RMK AO2 PK WND 35034/1822 SLP066 T00281089
Loading
Personal Weather Stations






























Interactive Weather Map New forecast layout! Learn more

10-Day Weather Forecast

Advertisements
Track Severe Weather on mobile